Time;durP1;ratioP1;P1;durP2;ratioP2;P2;SDS_P1;SDS_P2;PMS_P1;PMS_P2;Temp;Humidity;BMP_temperature;BMP_pressure;BME280_temperature;BME280_humidity;BME280_pressure;Samples;Min_cycle;Max_cycle;Signal;HPM_P1;HPM_P2
2023/05/19 00:02:14;;;;;;;13.38;4.63;;;;;;;9.51;100.00;102871.34;4989509;28;20026;-58
2023/05/19 00:04:40;;;;;;;7.40;4.45;;;;;;;9.45;100.00;102872.22;4989111;28;20653;-59
2023/05/19 00:07:09;;;;;;;12.95;4.78;;;;;;;9.34;100.00;102866.91;4988311;28;20035;-57
2023/05/19 00:09:35;;;;;;;13.98;4.95;;;;;;;9.34;100.00;102865.13;4989659;28;20055;-60
2023/05/19 00:12:01;;;;;;;13.02;4.90;;;;;;;9.29;100.00;102864.25;4989339;28;20381;-60
2023/05/19 00:14:27;;;;;;;10.00;4.95;;;;;;;9.28;100.00;102861.59;4990401;28;20101;-60
2023/05/19 00:16:54;;;;;;;11.48;5.03;;;;;;;9.23;100.00;102866.84;4989378;28;20496;-57
2023/05/19 00:19:20;;;;;;;9.77;4.30;;;;;;;9.13;100.00;102862.41;4988917;28;20652;-59
2023/05/19 00:21:46;;;;;;;11.63;4.95;;;;;;;9.08;100.00;102858.00;5004665;28;20038;-55
2023/05/19 00:24:12;;;;;;;11.27;4.45;;;;;;;9.10;100.00;102860.66;4989682;28;20477;-59
2023/05/19 00:26:37;;;;;;;12.35;5.15;;;;;;;9.02;100.00;102859.72;4987693;28;20058;-59
2023/05/19 00:29:02;;;;;;;10.30;4.82;;;;;;;8.99;100.00;102860.59;4989313;28;20089;-59
2023/05/19 00:31:28;;;;;;;12.77;5.10;;;;;;;8.92;100.00;102861.44;4989044;28;20033;-56
2023/05/19 00:33:54;;;;;;;10.05;5.20;;;;;;;8.91;100.00;102855.28;4988427;28;20469;-58
2023/05/19 00:36:20;;;;;;;13.00;5.53;;;;;;;8.94;100.00;102859.69;4989462;28;20084;-59
2023/05/19 00:38:45;;;;;;;11.50;5.53;;;;;;;8.89;100.00;102862.31;4989274;28;20034;-57
2023/05/19 00:41:10;;;;;;;12.18;5.78;;;;;;;8.89;100.00;102869.31;4989726;28;20497;-58
2023/05/19 00:43:36;;;;;;;16.52;5.53;;;;;;;8.87;100.00;102865.78;4989853;28;20023;-59
2023/05/19 00:46:02;;;;;;;10.75;5.18;;;;;;;8.80;100.00;102863.13;4988868;28;20652;-57
2023/05/19 00:48:27;;;;;;;11.63;5.32;;;;;;;8.84;100.00;102864.91;4988047;28;20782;-59
2023/05/19 00:50:56;;;;;;;14.45;5.88;;;;;;;8.80;100.00;102863.13;4986829;28;20034;-58
2023/05/19 00:53:22;;;;;;;11.30;5.57;;;;;;;8.82;100.00;102864.00;4987427;28;20469;-59
2023/05/19 00:55:47;;;;;;;9.02;5.18;;;;;;;8.74;100.00;102855.19;4986928;28;20053;-60
2023/05/19 00:58:13;;;;;;;9.98;5.35;;;;;;;8.71;100.00;102861.31;4988564;28;20034;-57
2023/05/19 01:00:39;;;;;;;12.90;5.53;;;;;;;8.76;100.00;102855.22;4988915;28;20037;-57
2023/05/19 01:03:10;;;;;;;12.35;5.32;;;;;;;8.69;100.00;102859.53;4986652;28;20030;-59
2023/05/19 01:05:40;;;;;;;13.48;5.78;;;;;;;8.72;100.00;102859.56;4988405;28;20030;-59
2023/05/19 01:08:06;;;;;;;16.67;5.53;;;;;;;8.72;100.00;102856.94;4988120;28;20035;-59
2023/05/19 01:10:32;;;;;;;12.48;5.15;;;;;;;8.71;100.00;102848.19;4985858;28;20047;-59
2023/05/19 01:12:57;;;;;;;13.25;5.85;;;;;;;8.77;100.00;102852.59;4987982;28;20034;-59
2023/05/19 01:15:26;;;;;;;12.13;6.00;;;;;;;8.65;100.00;102850.75;4986438;28;20029;-60
2023/05/19 01:18:06;;;;;;;18.02;6.72;;;;;;;8.56;100.00;102848.97;4986560;28;20027;-59
2023/05/19 01:20:38;;;;;;;14.20;5.18;;;;;;;8.53;100.00;102851.53;4987648;28;20072;-60
2023/05/19 01:23:22;;;;;;;9.02;5.55;;;;;;;8.59;100.00;102848.09;4985992;28;20031;-59
2023/05/19 01:26:20;;;;;;;18.00;5.97;;;;;;;8.54;100.00;102848.06;5000786;28;20030;-61
2023/05/19 01:29:03;;;;;;;21.60;5.78;;;;;;;8.55;100.00;102844.56;4983681;28;20042;-60
2023/05/19 01:31:29;;;;;;;19.80;5.47;;;;;;;8.55;100.00;102841.91;4968677;28;20031;-59
2023/05/19 01:33:55;;;;;;;12.30;5.47;;;;;;;8.53;100.00;102841.03;4985477;28;20045;-60
2023/05/19 01:36:22;;;;;;;8.20;5.07;;;;;;;8.46;100.00;102833.97;4986177;28;20029;-59
2023/05/19 01:38:50;;;;;;;15.85;6.18;;;;;;;8.47;100.00;102838.34;4986630;28;20032;-59
2023/05/19 01:41:15;;;;;;;17.10;6.28;;;;;;;8.37;100.00;102840.00;4987543;28;20041;-58
2023/05/19 01:43:41;;;;;;;12.57;5.72;;;;;;;8.37;100.00;102832.13;4988310;28;20412;-60
2023/05/19 01:46:07;;;;;;;13.98;6.13;;;;;;;8.35;100.00;102833.88;4985675;28;20019;-59
2023/05/19 01:48:32;;;;;;;18.27;6.15;;;;;;;8.34;100.00;102835.63;4986980;28;20034;-59
2023/05/19 01:50:58;;;;;;;14.25;5.72;;;;;;;8.39;100.00;102829.50;4986603;28;20136;-61
2023/05/19 01:53:24;;;;;;;9.85;5.32;;;;;;;8.33;100.00;102839.13;4987668;28;20038;-58
2023/05/19 01:55:53;;;;;;;14.50;5.97;;;;;;;8.21;100.00;102829.41;4985193;28;20466;-59
2023/05/19 01:58:25;;;;;;;14.60;6.00;;;;;;;8.25;100.00;102827.66;4987565;28;20030;-57
2023/05/19 02:00:57;;;;;;;14.77;5.88;;;;;;;8.22;100.00;102825.03;4985726;28;20057;-58
2023/05/19 02:03:27;;;;;;;11.10;6.10;;;;;;;8.17;100.00;102824.09;4986773;28;20026;-60
2023/05/19 02:06:15;;;;;;;19.15;7.65;;;;;;;8.10;100.00;102823.19;4986661;28;20041;-60
2023/05/19 02:08:43;;;;;;;17.20;6.28;;;;;;;8.14;100.00;102821.44;4984672;28;20034;-56
2023/05/19 02:11:18;;;;;;;14.80;6.60;;;;;;;8.15;100.00;102821.47;4966737;28;20023;-59
2023/05/19 02:13:44;;;;;;;13.27;6.32;;;;;;;8.05;100.00;102815.25;4981605;28;20148;-59
2023/05/19 02:16:11;;;;;;;13.02;6.32;;;;;;;8.11;100.00;102819.69;4982716;28;20093;-60
2023/05/19 02:18:36;;;;;;;16.05;6.30;;;;;;;8.16;100.00;102811.84;4986454;28;20026;-58
2023/05/19 02:21:02;;;;;;;12.05;5.90;;;;;;;8.14;100.00;102808.31;4986686;28;20114;-54
2023/05/19 02:23:27;;;;;;;15.93;5.90;;;;;;;8.13;100.00;102807.44;4986297;28;20370;-56
2023/05/19 02:25:53;;;;;;;18.85;6.65;;;;;;;8.12;100.00;102805.69;4986643;28;20030;-58
2023/05/19 02:28:18;;;;;;;14.45;7.53;;;;;;;8.17;100.00;102805.72;4985312;28;20065;-59
2023/05/19 02:30:43;;;;;;;8.98;5.82;;;;;;;8.12;100.00;102810.06;4986803;28;20065;-59
2023/05/19 02:33:10;;;;;;;13.00;6.07;;;;;;;8.13;100.00;102807.44;4986020;28;20034;-59
2023/05/19 02:35:35;;;;;;;14.25;6.43;;;;;;;8.03;100.00;102808.22;4987004;28;20029;-58
2023/05/19 02:38:01;;;;;;;16.27;6.82;;;;;;;8.02;100.00;102803.84;4985654;28;20026;-59
2023/05/19 02:40:26;;;;;;;10.95;6.03;;;;;;;8.03;100.00;102806.47;4985376;28;20117;-58
2023/05/19 02:42:51;;;;;;;13.73;6.28;;;;;;;8.07;100.00;102804.78;4986141;28;20105;-58
2023/05/19 02:45:17;;;;;;;9.05;6.13;;;;;;;7.99;100.00;102798.56;4986736;28;20030;-57
2023/05/19 02:47:42;;;;;;;10.27;6.03;;;;;;;7.97;100.00;102793.28;4983357;28;20196;-61
2023/05/19 02:50:08;;;;;;;15.43;6.68;;;;;;;7.97;100.00;102801.16;4987138;28;20023;-56
2023/05/19 02:52:33;;;;;;;15.50;6.95;;;;;;;7.96;100.00;102802.94;4985576;28;20444;-58
2023/05/19 02:54:58;;;;;;;12.57;6.13;;;;;;;7.92;100.00;102800.28;4986901;28;20347;-59
2023/05/19 02:57:25;;;;;;;12.32;6.43;;;;;;;7.93;100.00;102799.41;4986475;28;20018;-54
2023/05/19 02:59:50;;;;;;;18.42;7.32;;;;;;;7.92;100.00;102797.66;4984695;28;20045;-58
2023/05/19 03:02:16;;;;;;;18.67;6.78;;;;;;;7.90;100.00;102794.13;4985121;28;20489;-60
2023/05/19 03:04:41;;;;;;;17.15;7.03;;;;;;;7.82;100.00;102792.31;4984877;28;20125;-58
2023/05/19 03:07:08;;;;;;;16.20;7.28;;;;;;;7.83;100.00;102791.44;4986697;28;20033;-58
2023/05/19 03:09:36;;;;;;;20.00;6.68;;;;;;;7.82;100.00;102792.31;4985996;28;20065;-59
2023/05/19 03:12:02;;;;;;;13.55;6.93;;;;;;;7.82;100.00;102791.41;4986673;28;20031;-59
2023/05/19 03:14:28;;;;;;;15.43;7.68;;;;;;;7.86;100.00;102787.09;4985834;28;20550;-58
2023/05/19 03:16:54;;;;;;;19.23;7.47;;;;;;;7.83;100.00;102783.56;4986019;28;20030;-55
2023/05/19 03:19:20;;;;;;;14.07;6.97;;;;;;;7.82;100.00;102786.16;4986173;28;20088;-59
2023/05/19 03:21:46;;;;;;;13.43;7.32;;;;;;;7.78;100.00;102787.00;5003383;28;20120;-57
2023/05/19 03:24:11;;;;;;;17.85;7.13;;;;;;;7.81;100.00;102795.81;4990234;28;20030;-57
2023/05/19 03:26:37;;;;;;;12.90;6.72;;;;;;;7.83;100.00;102780.94;4990464;28;20026;-59
2023/05/19 03:29:02;;;;;;;14.32;7.65;;;;;;;7.72;100.00;102785.22;4988273;28;20485;-59
2023/05/19 03:31:29;;;;;;;17.45;7.57;;;;;;;7.72;100.00;102774.72;4990764;28;20038;-57
2023/05/19 03:33:56;;;;;;;17.48;7.88;;;;;;;7.70;100.00;102772.06;4989531;28;20034;-57
2023/05/19 03:36:22;;;;;;;15.20;7.65;;;;;;;7.73;100.00;102780.84;4990679;28;20030;-57
2023/05/19 03:38:47;;;;;;;19.98;7.78;;;;;;;7.75;100.00;102777.38;4990236;28;20035;-60
2023/05/19 03:41:12;;;;;;;17.65;7.82;;;;;;;7.74;100.00;102767.75;4990307;28;20038;-59
2023/05/19 03:43:38;;;;;;;24.40;8.18;;;;;;;7.74;100.00;102770.38;4989660;28;20109;-60
2023/05/19 03:46:03;;;;;;;21.98;8.00;;;;;;;7.73;100.00;102770.34;4990923;28;20026;-58
2023/05/19 03:48:28;;;;;;;16.38;8.00;;;;;;;7.73;100.00;102779.09;4989975;28;20174;-58
2023/05/19 03:50:54;;;;;;;18.48;8.00;;;;;;;7.65;100.00;102781.63;4989748;28;20066;-59
2023/05/19 03:53:19;;;;;;;15.93;7.28;;;;;;;7.73;100.00;102786.09;4990785;28;20492;-60
2023/05/19 03:55:45;;;;;;;19.48;7.47;;;;;;;7.74;100.00;102786.13;4990114;28;20034;-58
2023/05/19 03:58:13;;;;;;;19.67;7.90;;;;;;;7.77;100.00;102783.50;4986852;28;20461;-58
2023/05/19 04:00:38;;;;;;;20.00;7.60;;;;;;;7.75;100.00;102787.88;4990072;28;20034;-59
2023/05/19 04:03:04;;;;;;;15.63;7.95;;;;;;;7.73;100.00;102792.22;4990451;28;20080;-59
2023/05/19 04:05:29;;;;;;;18.70;8.25;;;;;;;7.76;100.00;102792.25;4991332;28;20093;-57
2023/05/19 04:07:55;;;;;;;18.67;7.82;;;;;;;7.77;100.00;102788.75;4994180;28;20048;-53
2023/05/19 04:10:20;;;;;;;24.48;9.93;;;;;;;7.71;100.00;102794.81;4994751;28;20580;-59
2023/05/19 04:12:46;;;;;;;19.25;7.72;;;;;;;7.73;100.00;102788.72;4989569;28;20449;-58
2023/05/19 04:15:12;;;;;;;19.77;8.30;;;;;;;7.65;100.00;102788.66;4990555;28;20034;-58
2023/05/19 04:17:37;;;;;;;19.73;8.40;;;;;;;7.65;100.00;102791.28;4989459;28;20050;-57
2023/05/19 04:20:04;;;;;;;20.63;8.18;;;;;;;7.68;100.00;102794.78;4987893;28;20027;-59
2023/05/19 04:22:31;;;;;;;19.63;8.00;;;;;;;7.75;100.00;102795.75;4989295;28;20018;-58
2023/05/19 04:24:57;;;;;;;18.77;7.97;;;;;;;7.67;100.00;102798.28;4988095;28;20029;-58
2023/05/19 04:27:22;;;;;;;18.48;8.65;;;;;;;7.73;100.00;102796.59;4989360;28;20026;-59
2023/05/19 04:29:48;;;;;;;32.78;9.18;;;;;;;7.69;100.00;102800.94;4989282;28;20049;-59
2023/05/19 04:32:16;;;;;;;13.57;7.20;;;;;;;7.73;100.00;102801.84;4988062;28;20062;-60
2023/05/19 04:34:44;;;;;;;17.52;8.05;;;;;;;7.71;100.00;102801.84;4989069;28;20029;-58
2023/05/19 04:37:12;;;;;;;18.20;8.00;;;;;;;7.74;100.00;102796.63;4990095;28;20113;-56
2023/05/19 04:39:41;;;;;;;16.77;7.93;;;;;;;7.88;100.00;102794.09;4989200;28;20066;-57
2023/05/19 04:42:07;;;;;;;22.33;8.00;;;;;;;7.85;100.00;102804.56;4988414;28;20481;-59
2023/05/19 04:44:33;;;;;;;20.50;8.07;;;;;;;7.88;100.00;102788.84;4989553;28;20105;-60
2023/05/19 04:46:58;;;;;;;27.15;11.93;;;;;;;8.01;100.00;102797.69;4987888;28;20034;-60
2023/05/19 04:49:24;;;;;;;19.25;8.20;;;;;;;8.03;100.00;102795.97;4988770;28;20034;-59
2023/05/19 04:51:50;;;;;;;22.50;7.90;;;;;;;8.13;100.00;102802.16;4988324;28;20125;-58
2023/05/19 04:54:15;;;;;;;13.93;7.78;;;;;;;8.21;100.00;102794.38;4988138;28;20027;-58
2023/05/19 04:56:42;;;;;;;21.80;8.65;;;;;;;8.18;100.00;102797.84;4986748;28;20513;-58
2023/05/19 04:59:08;;;;;;;17.83;8.23;;;;;;;8.29;100.00;102805.81;4988844;28;20057;-58
2023/05/19 05:01:34;;;;;;;16.25;7.82;;;;;;;8.44;100.00;102805.06;4986424;28;20588;-59
2023/05/19 05:04:01;;;;;;;18.13;7.95;;;;;;;8.47;100.00;102802.44;4987439;28;20034;-58
2023/05/19 05:06:27;;;;;;;14.07;7.82;;;;;;;8.63;100.00;102804.28;4986260;28;20057;-58
2023/05/19 05:08:52;;;;;;;23.67;9.05;;;;;;;8.64;100.00;102803.44;4986957;28;20022;-59
2023/05/19 05:11:18;;;;;;;20.33;7.47;;;;;;;8.69;100.00;102806.97;4986880;28;20727;-57
2023/05/19 05:13:44;;;;;;;16.60;7.40;;;;;;;8.73;100.00;102808.72;4988581;28;20022;-59
2023/05/19 05:16:10;;;;;;;16.85;7.60;;;;;;;8.88;100.00;102815.81;4987971;28;20496;-59
2023/05/19 05:18:37;;;;;;;22.17;7.72;;;;;;;8.91;100.00;102820.25;4985784;28;20034;-59
2023/05/19 05:21:03;;;;;;;21.65;7.30;;;;;;;9.06;100.00;102822.06;4987255;28;20110;-59
2023/05/19 05:23:29;;;;;;;18.48;7.72;;;;;;;9.01;100.00;102822.03;4988446;28;20033;-61
2023/05/19 05:25:55;;;;;;;18.85;8.35;;;;;;;9.21;100.00;102821.22;4970383;28;20038;-59
2023/05/19 05:28:20;;;;;;;13.30;7.65;;;;;;;9.26;100.00;102822.13;4987318;28;20030;-60
2023/05/19 05:30:46;;;;;;;15.05;8.05;;;;;;;9.23;100.00;102819.50;4986654;28;20029;-57
2023/05/19 05:33:11;;;;;;;18.02;7.55;;;;;;;9.28;100.00;102825.66;4987386;28;20034;-59
2023/05/19 05:35:36;;;;;;;13.05;7.85;;;;;;;9.32;100.00;102819.53;4987775;28;20733;-59
2023/05/19 05:38:02;;;;;;;12.90;6.68;;;;;;;9.54;100.00;102816.94;4985357;28;20851;-58
2023/05/19 05:40:27;;;;;;;12.68;7.28;;;;;;;9.65;100.00;102821.34;4987397;28;20045;-58
2023/05/19 05:42:54;;;;;;;18.95;8.93;;;;;;;9.75;100.00;102822.28;4986178;28;20031;-57
2023/05/19 05:45:23;;;;;;;20.58;8.18;;;;;;;9.69;100.00;102815.25;4987842;28;20073;-56
2023/05/19 05:47:49;;;;;;;14.73;7.13;;;;;;;9.84;100.00;102815.25;4985813;28;20081;-59
2023/05/19 05:50:14;;;;;;;22.58;7.68;;;;;;;9.84;100.00;102817.88;4988061;28;20019;-56
2023/05/19 05:52:40;;;;;;;15.23;7.93;;;;;;;9.86;100.00;102816.13;4988594;28;20030;-61
2023/05/19 05:55:06;;;;;;;16.30;7.95;;;;;;;9.96;100.00;102813.50;4985844;28;20643;-56
2023/05/19 05:57:34;;;;;;;15.88;7.47;;;;;;;9.99;100.00;102802.97;4987947;28;20026;-59
2023/05/19 05:59:59;;;;;;;13.48;7.82;;;;;;;10.01;100.00;102814.38;4987214;28;20206;-58
2023/05/19 06:02:26;;;;;;;15.85;8.23;;;;;;;10.04;100.00;102816.13;4987399;28;20117;-58
2023/05/19 06:04:53;;;;;;;19.58;7.25;;;;;;;10.19;100.00;102808.25;4987183;28;20026;-60
2023/05/19 06:07:18;;;;;;;15.13;7.22;;;;;;;10.24;100.00;102800.34;4987638;28;20049;-59
2023/05/19 06:09:43;;;;;;;21.05;7.78;;;;;;;10.23;100.00;102801.19;4986739;28;20536;-60
2023/05/19 06:12:10;;;;;;;18.52;7.38;;;;;;;10.32;100.00;102806.47;4988060;28;20030;-60
2023/05/19 06:14:35;;;;;;;17.42;7.75;;;;;;;10.38;100.00;102813.47;4984847;28;20041;-58
2023/05/19 06:17:00;;;;;;;12.82;7.18;;;;;;;10.57;100.00;102806.44;4986409;28;20363;-60
2023/05/19 06:19:26;;;;;;;17.48;7.22;;;;;;;10.76;100.00;102808.16;4987502;28;20469;-59
2023/05/19 06:21:51;;;;;;;15.60;7.28;;;;;;;10.59;100.00;102812.59;4986205;28;20088;-59
2023/05/19 06:24:16;;;;;;;18.42;7.10;;;;;;;10.84;100.00;102809.88;4983526;28;20041;-59
2023/05/19 06:26:42;;;;;;;14.27;6.03;;;;;;;10.94;100.00;102802.84;4986802;28;20030;-59
2023/05/19 06:29:07;;;;;;;17.02;7.35;;;;;;;10.99;100.00;102808.09;4985555;28;20015;-59
2023/05/19 06:31:32;;;;;;;14.48;6.65;;;;;;;11.26;100.00;102814.13;4984357;28;20109;-57
2023/05/19 06:33:58;;;;;;;13.20;6.43;;;;;;;11.45;100.00;102808.75;4983528;28;20069;-59
2023/05/19 06:36:23;;;;;;;9.75;6.30;;;;;;;11.59;100.00;102806.88;4982724;28;20465;-58
2023/05/19 06:38:48;;;;;;;21.52;6.68;;;;;;;11.52;100.00;102810.44;4981996;28;20053;-56
2023/05/19 06:41:14;;;;;;;16.02;6.05;;;;;;;11.54;100.00;102811.34;4982334;28;20092;-58
2023/05/19 06:43:39;;;;;;;13.75;6.22;;;;;;;11.72;100.00;102822.66;4985272;28;20035;-59
2023/05/19 06:46:04;;;;;;;15.25;6.95;;;;;;;11.67;100.00;102814.75;4982797;28;20029;-59
2023/05/19 06:48:30;;;;;;;13.90;6.20;;;;;;;11.68;100.00;102816.50;4985417;28;20027;-59
2023/05/19 06:50:55;;;;;;;11.90;6.63;;;;;;;11.62;100.00;102822.72;4996308;28;20037;-57
2023/05/19 06:53:21;;;;;;;14.13;6.30;;;;;;;11.57;100.00;102815.72;4984947;28;20130;-59
2023/05/19 06:55:49;;;;;;;20.48;6.65;;;;;;;11.71;100.00;102811.19;4984340;28;20026;-58
2023/05/19 06:58:14;;;;;;;13.32;5.68;;;;;;;11.83;100.00;102814.66;4989547;28;20022;-58
2023/05/19 07:00:40;;;;;;;16.25;5.93;;;;;;;12.07;100.00;102810.09;4988155;28;20023;-59
2023/05/19 07:03:05;;;;;;;10.82;5.72;;;;;;;11.85;100.00;102818.16;4988422;28;20026;-59
2023/05/19 07:05:30;;;;;;;18.80;6.35;;;;;;;11.77;100.00;102814.72;4987650;28;20010;-60
2023/05/19 07:07:56;;;;;;;11.95;6.30;;;;;;;11.90;100.00;102815.47;4987718;28;20015;-59
2023/05/19 07:10:21;;;;;;;13.95;5.90;;;;;;;12.06;100.00;102817.13;4988743;28;20125;-57
2023/05/19 07:12:46;;;;;;;12.20;5.95;;;;;;;12.19;100.00;102819.69;4986275;28;20396;-61
2023/05/19 07:15:12;;;;;;;10.52;5.80;;;;;;;11.97;100.00;102810.13;4984071;28;20022;-58
2023/05/19 07:17:37;;;;;;;14.05;5.40;;;;;;;12.12;100.00;102817.09;4987805;28;20037;-58
2023/05/19 07:20:05;;;;;;;19.70;5.90;;;;;;;12.06;100.00;102811.81;4977537;28;20019;-58
2023/05/19 07:22:33;;;;;;;16.65;5.65;;;;;;;12.16;100.00;102812.66;4987373;28;20037;-59
2023/05/19 07:24:59;;;;;;;14.97;6.37;;;;;;;12.31;100.00;102813.41;4986911;28;20030;-59
2023/05/19 07:27:25;;;;;;;11.80;5.43;;;;;;;12.57;100.00;102812.25;4987746;28;20481;-58
2023/05/19 07:29:50;;;;;;;13.73;6.47;;;;;;;12.69;100.00;102811.25;4988815;28;20485;-58
2023/05/19 07:32:15;;;;;;;14.05;6.00;;;;;;;12.77;100.00;102812.91;4986731;28;20082;-60
2023/05/19 07:34:40;;;;;;;12.98;5.82;;;;;;;12.79;100.00;102809.38;4989370;28;20121;-59
2023/05/19 07:37:06;;;;;;;13.82;5.88;;;;;;;12.76;100.00;102808.53;4987300;28;20018;-58
2023/05/19 07:39:33;;;;;;;13.00;5.90;;;;;;;12.77;100.00;102807.63;4989213;28;20085;-60
2023/05/19 07:41:59;;;;;;;11.55;5.47;;;;;;;12.76;100.00;102797.06;4984030;28;20026;-60
2023/05/19 07:44:25;;;;;;;11.70;5.30;;;;;;;12.82;100.00;102804.94;4987608;28;20034;-60
2023/05/19 07:46:51;;;;;;;12.57;5.07;;;;;;;12.95;100.00;102803.03;4986244;28;20510;-57
2023/05/19 07:49:16;;;;;;;10.32;5.13;;;;;;;13.05;100.00;102801.13;4988472;28;20030;-59
2023/05/19 07:51:42;;;;;;;14.38;5.00;;;;;;;13.25;100.00;102802.63;4987234;28;20027;-61
2023/05/19 07:54:07;;;;;;;8.95;5.13;;;;;;;13.45;100.00;102804.13;4988052;28;20366;-55
2023/05/19 07:56:33;;;;;;;14.32;5.47;;;;;;;13.46;100.00;102797.94;4987688;28;20094;-54
2023/05/19 07:58:58;;;;;;;16.80;4.90;;;;;;;13.49;100.00;102804.06;4986318;28;20072;-57
2023/05/19 08:01:23;;;;;;;8.88;4.60;;;;;;;13.80;100.00;102796.56;4986507;28;20042;-55
2023/05/19 08:03:49;;;;;;;12.65;5.07;;;;;;;13.74;100.00;102794.88;4986686;28;20026;-56
2023/05/19 08:06:14;;;;;;;10.55;4.57;;;;;;;13.79;100.00;102793.06;4986291;28;20027;-57
2023/05/19 08:08:40;;;;;;;11.98;4.50;;;;;;;14.19;100.00;102783.53;4986748;28;20114;-57
2023/05/19 08:11:06;;;;;;;12.18;4.47;;;;;;;14.12;100.00;102788.06;4985423;28;20038;-52
2023/05/19 08:13:32;;;;;;;12.13;4.05;;;;;;;14.19;100.00;102785.31;4988132;28;20483;-59
2023/05/19 08:15:58;;;;;;;13.63;4.38;;;;;;;14.46;100.00;102783.94;4985234;28;20019;-52
2023/05/19 08:18:24;;;;;;;10.35;4.55;;;;;;;14.68;100.00;102782.59;4982884;28;20034;-53
2023/05/19 08:20:50;;;;;;;14.30;4.30;;;;;;;14.91;100.00;102783.03;4965960;28;20224;-54
2023/05/19 08:23:16;;;;;;;15.20;4.53;;;;;;;15.07;100.00;102780.06;4982444;28;20077;-51
2023/05/19 08:25:42;;;;;;;16.40;4.50;;;;;;;15.01;100.00;102782.84;4987597;28;20104;-56
2023/05/19 08:28:07;;;;;;;12.80;3.92;;;;;;;15.41;100.00;102771.31;4985247;28;20481;-54
2023/05/19 08:30:33;;;;;;;7.00;4.13;;;;;;;15.46;99.11;102773.00;4987343;28;20026;-56
2023/05/19 08:32:58;;;;;;;12.45;4.25;;;;;;;15.30;99.26;102768.06;4982632;28;20478;-56
2023/05/19 08:35:23;;;;;;;9.93;4.15;;;;;;;15.36;99.32;102762.59;4972994;28;20536;-59
2023/05/19 08:37:49;;;;;;;12.85;4.05;;;;;;;15.19;98.46;102762.09;4970176;28;20049;-55
2023/05/19 08:40:17;;;;;;;6.97;3.10;;;;;;;15.34;97.88;102761.75;4986890;28;20045;-53
2023/05/19 08:42:46;;;;;;;10.15;3.72;;;;;;;15.40;96.32;102761.63;4985627;28;20019;-60
2023/05/19 08:45:11;;;;;;;11.55;4.30;;;;;;;15.49;96.29;102756.97;4978730;28;20021;-59
2023/05/19 08:47:37;;;;;;;9.80;4.18;;;;;;;15.57;96.54;102754.16;4965570;28;20386;-59
2023/05/19 08:50:06;;;;;;;8.75;3.40;;;;;;;15.62;95.72;102750.47;4985621;28;20113;-53
2023/05/19 08:52:44;;;;;;;10.77;3.75;;;;;;;15.94;94.83;102749.69;4986579;28;20073;-57
2023/05/19 08:55:32;;;;;;;10.13;3.63;;;;;;;16.08;93.46;102747.59;4985084;28;20023;-52
2023/05/19 08:57:59;;;;;;;11.25;4.15;;;;;;;16.05;91.98;102752.97;4985667;28;20144;-55
2023/05/19 09:00:24;;;;;;;10.15;3.58;;;;;;;15.93;92.19;102751.47;4987718;28;20034;-61
2023/05/19 09:02:50;;;;;;;12.20;3.58;;;;;;;15.86;92.23;102745.44;4969065;28;20030;-57
2023/05/19 09:05:16;;;;;;;9.25;3.60;;;;;;;15.73;93.94;102744.00;4988170;28;20436;-58
2023/05/19 09:07:43;;;;;;;7.47;3.00;;;;;;;15.97;93.46;102742.53;4987278;28;20030;-58
2023/05/19 09:10:13;;;;;;;10.68;3.00;;;;;;;16.02;89.60;102742.41;4984923;28;20042;-57
2023/05/19 09:12:38;;;;;;;10.85;3.30;;;;;;;15.97;91.58;102746.97;4987427;28;20023;-56
2023/05/19 09:15:04;;;;;;;9.45;3.53;;;;;;;15.98;87.35;102748.75;5001858;28;20500;-59
2023/05/19 09:17:30;;;;;;;8.00;3.00;;;;;;;16.04;87.72;102737.91;4986764;28;20023;-55
2023/05/19 09:19:55;;;;;;;7.38;2.65;;;;;;;16.33;87.23;102741.56;5000789;28;20122;-58
2023/05/19 09:22:21;;;;;;;11.10;2.47;;;;;;;16.44;83.67;102746.59;4986353;28;20023;-55
2023/05/19 09:24:46;;;;;;;7.90;2.78;;;;;;;16.66;83.27;102745.97;4984663;28;20060;-57
2023/05/19 09:27:14;;;;;;;11.25;2.45;;;;;;;17.01;82.31;102737.84;4987194;28;20050;-53
2023/05/19 09:29:39;;;;;;;7.80;2.20;;;;;;;17.05;82.14;102752.81;4987449;28;20027;-54
2023/05/19 09:32:05;;;;;;;6.75;2.25;;;;;;;16.81;78.42;102734.00;4984595;28;20022;-58
2023/05/19 09:34:30;;;;;;;7.80;2.38;;;;;;;17.10;80.19;102737.56;4984167;28;20026;-53
2023/05/19 09:36:58;;;;;;;8.63;2.20;;;;;;;17.42;76.92;102741.00;4983759;28;20027;-54
2023/05/19 09:39:24;;;;;;;6.03;2.22;;;;;;;17.22;78.16;102738.13;4984046;28;20224;-59
2023/05/19 09:41:54;;;;;;;8.32;2.45;;;;;;;16.75;77.56;102740.38;4985893;28;20038;-52
2023/05/19 09:44:19;;;;;;;7.65;2.30;;;;;;;16.96;78.36;102742.44;4987108;28;20027;-57
2023/05/19 09:46:49;;;;;;;5.55;2.10;;;;;;;17.02;78.65;102744.91;4984291;28;20057;-57
2023/05/19 09:49:21;;;;;;;8.25;2.83;;;;;;;16.95;79.79;102744.25;4987087;28;20041;-58
2023/05/19 09:51:53;;;;;;;12.93;2.70;;;;;;;16.89;80.52;102747.94;4984914;28;20069;-50
2023/05/19 09:54:20;;;;;;;14.38;2.80;;;;;;;16.88;78.09;102748.88;4987092;28;20026;-57
2023/05/19 09:56:50;;;;;;;9.63;2.65;;;;;;;17.04;77.96;102732.44;4978011;28;20142;-57
2023/05/19 09:59:16;;;;;;;8.98;2.30;;;;;;;16.86;77.38;102734.72;4986099;28;20068;-58
2023/05/19 10:01:45;;;;;;;6.65;2.22;;;;;;;17.02;77.10;102728.94;4985330;28;20022;-55
2023/05/19 10:04:10;;;;;;;14.95;2.17;;;;;;;17.22;76.82;102730.13;4987257;28;20173;-56
2023/05/19 10:06:35;;;;;;;12.80;2.88;;;;;;;17.55;74.04;102728.16;4986461;28;20115;-56
2023/05/19 10:09:01;;;;;;;7.63;2.50;;;;;;;17.61;74.78;102728.88;4984454;28;20046;-56
2023/05/19 10:11:28;;;;;;;6.97;2.17;;;;;;;17.93;72.93;102730.44;4999887;28;20116;-57
2023/05/19 10:13:54;;;;;;;5.75;2.28;;;;;;;18.15;72.01;102726.16;4983161;28;20027;-59
2023/05/19 10:16:20;;;;;;;9.75;2.30;;;;;;;18.12;66.89;102721.78;4983219;28;20022;-57
2023/05/19 10:18:46;;;;;;;5.10;2.10;;;;;;;18.15;67.99;102712.84;4982949;28;20022;-60
2023/05/19 10:21:12;;;;;;;5.93;2.33;;;;;;;18.26;63.71;102715.97;4985857;28;20050;-55
2023/05/19 10:23:38;;;;;;;6.80;2.25;;;;;;;18.22;62.68;102710.78;4985934;28;20511;-57
2023/05/19 10:26:05;;;;;;;14.70;2.38;;;;;;;17.96;63.31;102724.09;4985421;28;20096;-57
2023/05/19 10:28:34;;;;;;;5.20;2.00;;;;;;;17.77;62.70;102714.09;4984978;28;20492;-58
2023/05/19 10:31:01;;;;;;;7.32;3.10;;;;;;;17.96;62.09;102712.56;4983814;28;20418;-55
2023/05/19 10:33:53;;;;;;;7.45;1.92;;;;;;;18.63;60.40;102712.84;4985973;28;20417;-54
2023/05/19 10:36:38;;;;;;;9.75;1.90;;;;;;;19.01;61.05;102705.13;4986397;28;20042;-55
2023/05/19 10:39:05;;;;;;;6.95;2.28;;;;;;;18.74;60.92;102715.97;4999696;28;20023;-59
2023/05/19 10:41:43;;;;;;;7.50;2.13;;;;;;;18.77;62.94;102718.53;4985273;28;20034;-60
2023/05/19 10:44:16;;;;;;;12.32;2.63;;;;;;;18.96;63.33;102712.44;5001681;28;20073;-56
2023/05/19 10:46:41;;;;;;;6.60;2.38;;;;;;;19.03;64.08;102707.72;4984268;28;20030;-59
2023/05/19 10:49:07;;;;;;;7.47;2.50;;;;;;;19.26;58.33;102708.63;4986106;28;20034;-57
2023/05/19 10:51:33;;;;;;;5.10;2.22;;;;;;;18.64;59.31;102707.44;4985633;28;20037;-57
2023/05/19 10:54:02;;;;;;;5.70;2.42;;;;;;;18.25;60.40;102702.69;4986099;28;20085;-57
2023/05/19 10:56:32;;;;;;;12.13;2.20;;;;;;;18.45;61.82;102688.56;4985281;28;20385;-57
2023/05/19 10:58:57;;;;;;;6.30;2.63;;;;;;;18.82;62.34;102694.31;4985515;28;20027;-59
2023/05/19 11:01:32;;;;;;;9.98;2.90;;;;;;;19.16;63.36;102700.13;4985639;28;20088;-51
2023/05/19 11:04:04;;;;;;;10.57;3.03;;;;;;;19.05;60.45;102695.16;4985725;28;20022;-58
2023/05/19 11:06:31;;;;;;;7.03;2.70;;;;;;;18.90;61.41;102689.50;4986606;28;20692;-54
2023/05/19 11:09:14;;;;;;;11.85;2.83;;;;;;;18.94;60.61;102690.28;4985228;28;20030;-57
2023/05/19 11:11:51;;;;;;;6.70;2.55;;;;;;;18.44;60.70;102693.06;5002423;28;20044;-55
2023/05/19 11:14:21;;;;;;;8.98;2.55;;;;;;;18.82;61.87;102691.63;4997687;28;20093;-56
2023/05/19 11:16:48;;;;;;;5.70;2.47;;;;;;;19.18;59.82;102693.75;4985499;28;20369;-58